Cosco Kaohsiung — VREM3 — position and weather

sailwx.info

Track history (hours):
 
Tides and Currents Weather Stations Pressure Air Temp Water Temp Dewpoint Dewpoint Depression Visibility Wind Speed Wind Dir Waves Ship Positions

Cosco Kaohsiung

Last reported at 2014-Sep-27 15:33 UTC. Time now 2014-Oct-02 00:27 UTC.
Position N 35°41' E 025°49'.

Length 349 m; draft 13.4 m.

Type: Ship (hazmat cat A). MMSI: 477136800.

Date/timePositionNaut miles runAvg speedWind from/ knotsBaromVisibWave heightAir tempDewpointWater temp
2014-Sep-27 15:33N 35°41' E 025°49'1717.5
2014-Sep-27 14:33N 35°50' E 025°30'1717.4
2014-Sep-27 13:33N 35°58' E 025°11'1817.8
2014-Sep-27 12:33N 36°07' E 024°52'1817.9
2014-Sep-27 11:33N 36°16' E 024°33'1717.1
2014-Sep-27 10:33N 36°30' E 024°19'1717.2
2014-Sep-27 09:33N 36°44' E 024°08'1717.3
2014-Sep-27 08:33N 36°60' E 023°58'3718.3
2014-Sep-27 06:33N 37°35' E 023°44'1818.2
2014-Sep-27 05:34N 37°52' E 023°37'6 5.6
2014-Sep-27 04:33N 37°57' E 023°35'0 0.0
2014-Sep-27 03:31N 37°57' E 023°35'0 0.0
2014-Sep-27 02:31N 37°57' E 023°35'0 0.0
2014-Sep-27 01:31N 37°57' E 023°35'0 0.0
2014-Sep-27 00:31N 37°57' E 023°35'0 0.0
2014-Sep-26 23:31N 37°57' E 023°35'0 0.0
2014-Sep-26 22:31N 37°57' E 023°35'0 0.0
2014-Sep-26 21:31N 37°57' E 023°35'0 0.0
2014-Sep-26 20:31N 37°57' E 023°35'0 0.0
2014-Sep-26 19:31N 37°57' E 023°35'0 0.0
2014-Sep-26 18:31N 37°57' E 023°35'0 0.0
2014-Sep-26 17:31N 37°57' E 023°35'0 0.0
2014-Sep-26 16:31N 37°57' E 023°35'0 0.0
2014-Sep-26 15:31N 37°57' E 023°35'0 0.0
2014-Sep-26 14:31N 37°57' E 023°35'0 0.0
2014-Sep-26 13:31N 37°57' E 023°35'0 0.0
2014-Sep-26 12:31N 37°57' E 023°35'0 0.0
2014-Sep-26 11:31N 37°57' E 023°35'0 0.0
2014-Sep-26 10:31N 37°57' E 023°35'0 0.0
2014-Sep-26 09:31N 37°57' E 023°35'0 0.0
2014-Sep-26 08:28N 37°57' E 023°35'0 0.0
2014-Sep-26 07:31N 37°57' E 023°35'0 0.0
2014-Sep-26 06:31N 37°57' E 023°35'0 0.0
2014-Sep-26 05:31N 37°57' E 023°35'1 1.1
2014-Sep-26 04:33N 37°56' E 023°35'3 3.0
2014-Sep-26 03:33N 37°54' E 023°37'4 4.2
2014-Sep-26 02:33N 37°50' E 023°39'1211.5
2014-Sep-26 01:33N 37°40' E 023°46'2218.7
2014-Sep-26 00:23N 37°18' E 023°41'1619.2
2014-Sep-25 23:32N 37°02' E 023°36'1919.1
2014-Sep-25 22:33N 36°44' E 023°29'1918.6
2014-Sep-25 21:33N 36°27' E 023°21'1818.2
2014-Sep-25 20:33N 36°10' E 023°12'41818.1
2014-Sep-24 21:31N 36°28' E 014°34'2118.8
2014-Sep-24 20:25N 36°33' E 014°09'1618.6
2014-Sep-24 19:32N 36°37' E 013°49'1818.4
2014-Sep-24 18:33N 36°42' E 013°27'2218.1
2014-Sep-24 17:20N 36°47' E 013°01'46318.7
2014-Sep-23 16:33N 38°52' E 003°37'1918.8
2014-Sep-23 15:33N 38°56' E 003°13'1918.8
2014-Sep-23 14:33N 39°00' E 002°50'1918.9
2014-Sep-23 13:33N 39°04' E 002°26'1918.9
2014-Sep-23 12:33N 39°08' E 002°02'1818.5
2014-Sep-23 11:33N 39°12' E 001°39'1918.6
2014-Sep-23 10:33N 39°15' E 001°15'7218.1
2014-Sep-23 06:33N 39°25' W 000°18'2 1.5
2014-Sep-23 05:31N 39°26' W 000°19'0 0.0
2014-Sep-23 04:31N 39°26' W 000°19'0 0.0
2014-Sep-23 03:31N 39°26' W 000°19'0 0.0
2014-Sep-23 02:25N 39°26' W 000°19'0 0.0
2014-Sep-23 00:25N 39°26' W 000°19'0 0.0
2014-Sep-22 23:31N 39°26' W 000°19'0 0.0
2014-Sep-22 22:31N 39°26' W 000°19'0 0.0
2014-Sep-22 21:31N 39°26' W 000°19'0 0.0
2014-Sep-22 20:07N 39°26' W 000°19'0 0.0
2014-Sep-22 18:19N 39°26' W 000°19'0 0.0
2014-Sep-22 17:31N 39°26' W 000°19'0 0.0
2014-Sep-22 16:31N 39°26' W 000°19'0 0.0
2014-Sep-22 15:31N 39°26' W 000°19'0 0.0
2014-Sep-22 14:31N 39°26' W 000°19'0 0.0
2014-Sep-22 13:31N 39°26' W 000°19'0 0.0
2014-Sep-22 12:25N 39°26' W 000°19'0 0.0
2014-Sep-22 11:31N 39°26' W 000°19'0 0.0
2014-Sep-22 10:31N 39°26' W 000°19'0 0.0
2014-Sep-22 09:31N 39°26' W 000°19'0 0.0
2014-Sep-22 08:31N 39°26' W 000°19'0 0.0
2014-Sep-22 07:31N 39°26' W 000°19'0 0.0
2014-Sep-22 06:31N 39°26' W 000°19'0 0.0
2014-Sep-22 05:31N 39°26' W 000°19'0 0.0
2014-Sep-22 04:31N 39°26' W 000°19'1 1.2
2014-Sep-22 03:33N 39°26' W 000°18'10 9.6
2014-Sep-22 02:33N 39°31' W 000°08'5015.8
2014-Sep-21 23:24N 40°05' E 000°40'1615.7
2014-Sep-21 22:22N 40°16' E 000°56'1315.7
2014-Sep-21 21:33N 40°24' E 001°08'1918.3
2014-Sep-21 20:32N 40°37' E 001°26'1717.7
2014-Sep-21 19:33N 40°50' E 001°42'1818.4
2014-Sep-21 18:33N 41°04' E 001°57'1716.6
2014-Sep-21 17:33N 41°17' E 002°10'2 1.2
2014-Sep-21 16:13N 41°19' E 002°09'0 0.0
2014-Sep-21 15:25N 41°19' E 002°09'0 0.0
2014-Sep-21 14:28N 41°19' E 002°09'0 0.0
2014-Sep-21 13:31N 41°19' E 002°09'0 0.0
2014-Sep-21 12:31N 41°19' E 002°09'0 0.0
2014-Sep-21 11:25N 41°19' E 002°09'0 0.0
2014-Sep-21 08:31N 41°18' E 002°09'0 0.0
2014-Sep-21 07:10N 41°19' E 002°09'0 0.0
2014-Sep-21 06:31N 41°19' E 002°09'0 0.0
2014-Sep-21 05:28N 41°19' E 002°09'0 0.0
2014-Sep-21 04:31N 41°19' E 002°09'0 0.0
2014-Sep-21 03:25N 41°19' E 002°09'0 0.0
2014-Sep-21 02:31N 41°19' E 002°09'0 0.0
2014-Sep-21 01:31N 41°19' E 002°09'0 0.0
2014-Sep-21 00:31N 41°18' E 002°09'0 0.0
2014-Sep-20 23:31N 41°19' E 002°09'0 0.0
2014-Sep-20 22:31N 41°19' E 002°09'0 0.5
2014-Sep-20 21:33N 41°19' E 002°09'4 4.1
2014-Sep-20 20:33N 41°18' E 002°15'1413.5
2014-Sep-20 19:33N 41°24' E 002°31'1615.7
2014-Sep-20 18:33N 41°31' E 002°50'1515.2
2014-Sep-20 17:33N 41°38' E 003°08'1515.3
2014-Sep-20 16:33N 41°44' E 003°27'1515.1
2014-Sep-20 15:33N 41°51' E 003°45'1615.2
2014-Sep-20 14:31N 41°58' E 004°03'1415.1
2014-Sep-20 13:33N 42°04' E 004°21'1615.7
2014-Sep-20 12:31N 42°11' E 004°41'1615.8
2014-Sep-20 11:30N 42°18' E 005°00'1515.4
2014-Sep-20 10:33N 42°24' E 005°18'1615.2
2014-Sep-20 09:31N 42°32' E 005°37'1415.0
2014-Sep-20 08:33N 42°38' E 005°55'1515.4
2014-Sep-20 07:33N 42°45' E 006°14'1616.1
2014-Sep-20 06:33N 42°52' E 006°33'1616.4
2014-Sep-20 05:33N 43°02' E 006°51'1616.4
2014-Sep-20 04:33N 43°12' E 007°09'1616.2
2014-Sep-20 03:33N 43°22' E 007°26'1616.2
2014-Sep-20 02:33N 43°33' E 007°44'3115.8
2014-Sep-20 00:33N 43°53' E 008°17'1615.7
2014-Sep-19 23:33N 44°06' E 008°29'1615.9
2014-Sep-19 22:33N 44°20' E 008°40'7 7.4
2014-Sep-19 21:33N 44°25' E 008°48'0 0.0
2014-Sep-19 20:33N 44°25' E 008°48'0 0.0
2014-Sep-19 19:33N 44°25' E 008°48'0 0.0
2014-Sep-19 18:27N 44°25' E 008°48'0 0.0
2014-Sep-19 17:33N 44°25' E 008°48'0 0.0
2014-Sep-19 16:33N 44°25' E 008°48'0 0.0
2014-Sep-19 15:27N 44°25' E 008°48'0 0.0
2014-Sep-19 14:33N 44°25' E 008°48'0 0.0
2014-Sep-19 13:30N 44°25' E 008°48'0 0.0
2014-Sep-19 12:33N 44°25' E 008°48'0 0.0
2014-Sep-19 11:27N 44°25' E 008°48'0 0.0
2014-Sep-19 10:30N 44°25' E 008°48'0 0.0
2014-Sep-19 08:33N 44°25' E 008°48'0 0.0
2014-Sep-19 07:33N 44°25' E 008°48'0 0.0
2014-Sep-19 06:30N 44°25' E 008°48'0 0.0
2014-Sep-19 05:27N 44°25' E 008°48'0 0.0
2014-Sep-19 04:33N 44°25' E 008°48'0 0.0
2014-Sep-19 03:30N 44°25' E 008°48'0 0.0
2014-Sep-19 02:33N 44°25' E 008°48'0 0.0
2014-Sep-19 01:24N 44°25' E 008°48'0 0.0
2014-Sep-19 00:33N 44°25' E 008°48'0 0.0
2014-Sep-18 23:27N 44°25' E 008°48'0 0.0
2014-Sep-18 22:33N 44°25' E 008°48'0 0.0
2014-Sep-18 21:30N 44°25' E 008°48'0 0.0
2014-Sep-18 20:33N 44°25' E 008°48'0 0.0
2014-Sep-18 19:27N 44°25' E 008°48'0 0.0
2014-Sep-18 18:33N 44°25' E 008°48'0 0.0
2014-Sep-18 17:27N 44°25' E 008°48'0 0.0
2014-Sep-18 16:33N 44°25' E 008°48'0 0.0
2014-Sep-18 15:30N 44°25' E 008°48'0 0.0
2014-Sep-18 14:33N 44°25' E 008°48'0 0.0
2014-Sep-18 13:33N 44°25' E 008°48'0 0.0
2014-Sep-18 12:30N 44°25' E 008°48'0 0.0
2014-Sep-18 11:33N 44°25' E 008°48'0 0.0
2014-Sep-18 10:33N 44°25' E 008°48'0 0.0
2014-Sep-18 09:33N 44°25' E 008°48'0 0.0
2014-Sep-18 08:33N 44°25' E 008°48'0 0.4
2014-Sep-18 07:33N 44°25' E 008°47'6 6.4
2014-Sep-18 06:33N 44°19' E 008°46'9 9.3
2014-Sep-18 05:33N 44°11' E 008°52'1 0.7
2014-Sep-18 04:33N 44°11' E 008°53'0 0.4
2014-Sep-18 03:30N 44°12' E 008°53'0 0.4
2014-Sep-18 02:33N 44°12' E 008°53'0 0.4
2014-Sep-18 01:30N 44°13' E 008°53'1 0.6
2014-Sep-18 00:33N 44°13' E 008°53'1 0.8
2014-Sep-17 23:33N 44°14' E 008°53'1 0.8
2014-Sep-17 22:33N 44°15' E 008°52'1 0.8
2014-Sep-17 21:30N 44°15' E 008°52'1 0.7
2014-Sep-17 20:33N 44°16' E 008°51'1 0.7
2014-Sep-17 19:33N 44°17' E 008°51'1 0.6
2014-Sep-17 18:33N 44°17' E 008°51'0 0.5
2014-Sep-17 17:27N 44°18' E 008°50'0 0.3
2014-Sep-17 16:30N 44°18' E 008°50'  
Track history (hours):
 
Tides and Currents Weather Stations Pressure Air Temp Water Temp Dewpoint Dewpoint Depression Visibility Wind Speed Wind Dir Waves Ship Positions

Cosco Kaohsiung

Last reported at 2014-Sep-27 15:33 UTC. Time now 2014-Oct-02 00:27 UTC.
Position N 35°41' E 025°49'.

Length 349 m; draft 13.4 m.

Type: Ship (hazmat cat A). MMSI: 477136800.

Date/timePositionNaut miles runAvg speedWind from/ knotsBaromVisibWave heightAir tempDewpointWater temp
2014-Sep-27 15:33N 35°41' E 025°49'1717.5
2014-Sep-27 14:33N 35°50' E 025°30'1717.4
2014-Sep-27 13:33N 35°58' E 025°11'1817.8
2014-Sep-27 12:33N 36°07' E 024°52'1817.9
2014-Sep-27 11:33N 36°16' E 024°33'1717.1
2014-Sep-27 10:33N 36°30' E 024°19'1717.2
2014-Sep-27 09:33N 36°44' E 024°08'1717.3
2014-Sep-27 08:33N 36°60' E 023°58'3718.3
2014-Sep-27 06:33N 37°35' E 023°44'1818.2
2014-Sep-27 05:34N 37°52' E 023°37'6 5.6
2014-Sep-27 04:33N 37°57' E 023°35'0 0.0
2014-Sep-27 03:31N 37°57' E 023°35'0 0.0
2014-Sep-27 02:31N 37°57' E 023°35'0 0.0
2014-Sep-27 01:31N 37°57' E 023°35'0 0.0
2014-Sep-27 00:31N 37°57' E 023°35'0 0.0
2014-Sep-26 23:31N 37°57' E 023°35'0 0.0
2014-Sep-26 22:31N 37°57' E 023°35'0 0.0
2014-Sep-26 21:31N 37°57' E 023°35'0 0.0
2014-Sep-26 20:31N 37°57' E 023°35'0 0.0
2014-Sep-26 19:31N 37°57' E 023°35'0 0.0
2014-Sep-26 18:31N 37°57' E 023°35'0 0.0
2014-Sep-26 17:31N 37°57' E 023°35'0 0.0
2014-Sep-26 16:31N 37°57' E 023°35'0 0.0
2014-Sep-26 15:31N 37°57' E 023°35'0 0.0
2014-Sep-26 14:31N 37°57' E 023°35'0 0.0
2014-Sep-26 13:31N 37°57' E 023°35'0 0.0
2014-Sep-26 12:31N 37°57' E 023°35'0 0.0
2014-Sep-26 11:31N 37°57' E 023°35'0 0.0
2014-Sep-26 10:31N 37°57' E 023°35'0 0.0
2014-Sep-26 09:31N 37°57' E 023°35'0 0.0
2014-Sep-26 08:28N 37°57' E 023°35'0 0.0
2014-Sep-26 07:31N 37°57' E 023°35'0 0.0
2014-Sep-26 06:31N 37°57' E 023°35'0 0.0
2014-Sep-26 05:31N 37°57' E 023°35'1 1.1
2014-Sep-26 04:33N 37°56' E 023°35'3 3.0
2014-Sep-26 03:33N 37°54' E 023°37'4 4.2
2014-Sep-26 02:33N 37°50' E 023°39'1211.5
2014-Sep-26 01:33N 37°40' E 023°46'2218.7
2014-Sep-26 00:23N 37°18' E 023°41'1619.2
2014-Sep-25 23:32N 37°02' E 023°36'1919.1
2014-Sep-25 22:33N 36°44' E 023°29'1918.6
2014-Sep-25 21:33N 36°27' E 023°21'1818.2
2014-Sep-25 20:33N 36°10' E 023°12'41818.1
2014-Sep-24 21:31N 36°28' E 014°34'2118.8
2014-Sep-24 20:25N 36°33' E 014°09'1618.6
2014-Sep-24 19:32N 36°37' E 013°49'1818.4
2014-Sep-24 18:33N 36°42' E 013°27'2218.1
2014-Sep-24 17:20N 36°47' E 013°01'46318.7
2014-Sep-23 16:33N 38°52' E 003°37'1918.8
2014-Sep-23 15:33N 38°56' E 003°13'1918.8
2014-Sep-23 14:33N 39°00' E 002°50'1918.9
2014-Sep-23 13:33N 39°04' E 002°26'1918.9
2014-Sep-23 12:33N 39°08' E 002°02'1818.5
2014-Sep-23 11:33N 39°12' E 001°39'1918.6
2014-Sep-23 10:33N 39°15' E 001°15'7218.1
2014-Sep-23 06:33N 39°25' W 000°18'2 1.5
2014-Sep-23 05:31N 39°26' W 000°19'0 0.0
2014-Sep-23 04:31N 39°26' W 000°19'0 0.0
2014-Sep-23 03:31N 39°26' W 000°19'0 0.0
2014-Sep-23 02:25N 39°26' W 000°19'0 0.0
2014-Sep-23 00:25N 39°26' W 000°19'0 0.0
2014-Sep-22 23:31N 39°26' W 000°19'0 0.0
2014-Sep-22 22:31N 39°26' W 000°19'0 0.0
2014-Sep-22 21:31N 39°26' W 000°19'0 0.0
2014-Sep-22 20:07N 39°26' W 000°19'0 0.0
2014-Sep-22 18:19N 39°26' W 000°19'0 0.0
2014-Sep-22 17:31N 39°26' W 000°19'0 0.0
2014-Sep-22 16:31N 39°26' W 000°19'0 0.0
2014-Sep-22 15:31N 39°26' W 000°19'0 0.0
2014-Sep-22 14:31N 39°26' W 000°19'0 0.0
2014-Sep-22 13:31N 39°26' W 000°19'0 0.0
2014-Sep-22 12:25N 39°26' W 000°19'0 0.0
2014-Sep-22 11:31N 39°26' W 000°19'0 0.0
2014-Sep-22 10:31N 39°26' W 000°19'0 0.0
2014-Sep-22 09:31N 39°26' W 000°19'0 0.0
2014-Sep-22 08:31N 39°26' W 000°19'0 0.0
2014-Sep-22 07:31N 39°26' W 000°19'0 0.0
2014-Sep-22 06:31N 39°26' W 000°19'0 0.0
2014-Sep-22 05:31N 39°26' W 000°19'0 0.0
2014-Sep-22 04:31N 39°26' W 000°19'1 1.2
2014-Sep-22 03:33N 39°26' W 000°18'10 9.6
2014-Sep-22 02:33N 39°31' W 000°08'5015.8
2014-Sep-21 23:24N 40°05' E 000°40'1615.7
2014-Sep-21 22:22N 40°16' E 000°56'1315.7
2014-Sep-21 21:33N 40°24' E 001°08'1918.3
2014-Sep-21 20:32N 40°37' E 001°26'1717.7
2014-Sep-21 19:33N 40°50' E 001°42'1818.4
2014-Sep-21 18:33N 41°04' E 001°57'1716.6
2014-Sep-21 17:33N 41°17' E 002°10'2 1.2
2014-Sep-21 16:13N 41°19' E 002°09'0 0.0
2014-Sep-21 15:25N 41°19' E 002°09'0 0.0
2014-Sep-21 14:28N 41°19' E 002°09'0 0.0
2014-Sep-21 13:31N 41°19' E 002°09'0 0.0
2014-Sep-21 12:31N 41°19' E 002°09'0 0.0
2014-Sep-21 11:25N 41°19' E 002°09'0 0.0
2014-Sep-21 08:31N 41°18' E 002°09'0 0.0
2014-Sep-21 07:10N 41°19' E 002°09'0 0.0
2014-Sep-21 06:31N 41°19' E 002°09'0 0.0
2014-Sep-21 05:28N 41°19' E 002°09'0 0.0
2014-Sep-21 04:31N 41°19' E 002°09'0 0.0
2014-Sep-21 03:25N 41°19' E 002°09'0 0.0
2014-Sep-21 02:31N 41°19' E 002°09'0 0.0
2014-Sep-21 01:31N 41°19' E 002°09'0 0.0
2014-Sep-21 00:31N 41°18' E 002°09'0 0.0
2014-Sep-20 23:31N 41°19' E 002°09'0 0.0
2014-Sep-20 22:31N 41°19' E 002°09'0 0.5
2014-Sep-20 21:33N 41°19' E 002°09'4 4.1
2014-Sep-20 20:33N 41°18' E 002°15'1413.5
2014-Sep-20 19:33N 41°24' E 002°31'1615.7
2014-Sep-20 18:33N 41°31' E 002°50'1515.2
2014-Sep-20 17:33N 41°38' E 003°08'1515.3
2014-Sep-20 16:33N 41°44' E 003°27'1515.1
2014-Sep-20 15:33N 41°51' E 003°45'1615.2
2014-Sep-20 14:31N 41°58' E 004°03'1415.1
2014-Sep-20 13:33N 42°04' E 004°21'1615.7
2014-Sep-20 12:31N 42°11' E 004°41'1615.8
2014-Sep-20 11:30N 42°18' E 005°00'1515.4
2014-Sep-20 10:33N 42°24' E 005°18'1615.2
2014-Sep-20 09:31N 42°32' E 005°37'1415.0
2014-Sep-20 08:33N 42°38' E 005°55'1515.4
2014-Sep-20 07:33N 42°45' E 006°14'1616.1
2014-Sep-20 06:33N 42°52' E 006°33'1616.4
2014-Sep-20 05:33N 43°02' E 006°51'1616.4
2014-Sep-20 04:33N 43°12' E 007°09'1616.2
2014-Sep-20 03:33N 43°22' E 007°26'1616.2
2014-Sep-20 02:33N 43°33' E 007°44'3115.8
2014-Sep-20 00:33N 43°53' E 008°17'1615.7
2014-Sep-19 23:33N 44°06' E 008°29'1615.9
2014-Sep-19 22:33N 44°20' E 008°40'7 7.4
2014-Sep-19 21:33N 44°25' E 008°48'0 0.0
2014-Sep-19 20:33N 44°25' E 008°48'0 0.0
2014-Sep-19 19:33N 44°25' E 008°48'0 0.0
2014-Sep-19 18:27N 44°25' E 008°48'0 0.0
2014-Sep-19 17:33N 44°25' E 008°48'0 0.0
2014-Sep-19 16:33N 44°25' E 008°48'0 0.0
2014-Sep-19 15:27N 44°25' E 008°48'0 0.0
2014-Sep-19 14:33N 44°25' E 008°48'0 0.0
2014-Sep-19 13:30N 44°25' E 008°48'0 0.0
2014-Sep-19 12:33N 44°25' E 008°48'0 0.0
2014-Sep-19 11:27N 44°25' E 008°48'0 0.0
2014-Sep-19 10:30N 44°25' E 008°48'0 0.0
2014-Sep-19 08:33N 44°25' E 008°48'0 0.0
2014-Sep-19 07:33N 44°25' E 008°48'0 0.0
2014-Sep-19 06:30N 44°25' E 008°48'0 0.0
2014-Sep-19 05:27N 44°25' E 008°48'0 0.0
2014-Sep-19 04:33N 44°25' E 008°48'0 0.0
2014-Sep-19 03:30N 44°25' E 008°48'0 0.0
2014-Sep-19 02:33N 44°25' E 008°48'0 0.0
2014-Sep-19 01:24N 44°25' E 008°48'0 0.0
2014-Sep-19 00:33N 44°25' E 008°48'0 0.0
2014-Sep-18 23:27N 44°25' E 008°48'0 0.0
2014-Sep-18 22:33N 44°25' E 008°48'0 0.0
2014-Sep-18 21:30N 44°25' E 008°48'0 0.0
2014-Sep-18 20:33N 44°25' E 008°48'0 0.0
2014-Sep-18 19:27N 44°25' E 008°48'0 0.0
2014-Sep-18 18:33N 44°25' E 008°48'0 0.0
2014-Sep-18 17:27N 44°25' E 008°48'0 0.0
2014-Sep-18 16:33N 44°25' E 008°48'0 0.0
2014-Sep-18 15:30N 44°25' E 008°48'0 0.0
2014-Sep-18 14:33N 44°25' E 008°48'0 0.0
2014-Sep-18 13:33N 44°25' E 008°48'0 0.0
2014-Sep-18 12:30N 44°25' E 008°48'0 0.0
2014-Sep-18 11:33N 44°25' E 008°48'0 0.0
2014-Sep-18 10:33N 44°25' E 008°48'0 0.0
2014-Sep-18 09:33N 44°25' E 008°48'0 0.0
2014-Sep-18 08:33N 44°25' E 008°48'0 0.4
2014-Sep-18 07:33N 44°25' E 008°47'6 6.4
2014-Sep-18 06:33N 44°19' E 008°46'9 9.3
2014-Sep-18 05:33N 44°11' E 008°52'1 0.7
2014-Sep-18 04:33N 44°11' E 008°53'0 0.4
2014-Sep-18 03:30N 44°12' E 008°53'0 0.4
2014-Sep-18 02:33N 44°12' E 008°53'0 0.4
2014-Sep-18 01:30N 44°13' E 008°53'1 0.6
2014-Sep-18 00:33N 44°13' E 008°53'1 0.8
2014-Sep-17 23:33N 44°14' E 008°53'1 0.8
2014-Sep-17 22:33N 44°15' E 008°52'1 0.8
2014-Sep-17 21:30N 44°15' E 008°52'1 0.7
2014-Sep-17 20:33N 44°16' E 008°51'1 0.7
2014-Sep-17 19:33N 44°17' E 008°51'1 0.6
2014-Sep-17 18:33N 44°17' E 008°51'0 0.5
2014-Sep-17 17:27N 44°18' E 008°50'0 0.3
2014-Sep-17 16:30N 44°18' E 008°50'  

Dump ship's entire track history